Antonios — SY8410 — position and weather

sailwx.info

Track history (hours):
 
Tides and Currents Weather Stations Pressure Air Temp Water Temp Dewpoint Dewpoint Depression Visibility Wind Speed Wind Dir Waves Ship Positions

Antonios

Last reported at 2016-May-18 06:33 UTC. Time now 2016-May-27 12:18 UTC.
Position N 37°11' E 025°46'.
Warning: this ship's position is 9 days out of date.

Length 57 m; draft 4 m.

Type: Tanker. MMSI: 239191300.

Date/timePositionNaut miles runAvg speedWind from/ knotsBaromVisibWave heightAir tempDewpointWater temp
2016-May-18 06:33N 37°11' E 025°46'11 9.8
2016-May-18 05:25N 37°14' E 025°32'8 9.7
2016-May-18 04:33N 37°15' E 025°22'10 9.8
2016-May-18 03:33N 37°18' E 025°10'10 9.7
2016-May-18 02:33N 37°20' E 024°58'10 9.9
2016-May-18 01:33N 37°23' E 024°46'2410.0
2016-May-17 23:11N 37°30' E 024°18'7 9.8
2016-May-17 22:29N 37°31' E 024°09'1010.0
2016-May-17 21:32N 37°34' E 023°58'1010.2
2016-May-17 20:33N 37°37' E 023°46'10 9.6
2016-May-17 19:33N 37°45' E 023°39'9 8.8
2016-May-17 18:33N 37°50' E 023°30'10 9.8
2016-May-17 17:33N 37°52' E 023°18'10 9.9
2016-May-17 16:33N 37°55' E 023°06'0 0.3
2016-May-17 15:33N 37°55' E 023°05'0 0.0
2016-May-17 14:33N 37°55' E 023°05'0 0.0
2016-May-17 13:33N 37°55' E 023°05'0 0.0
2016-May-17 12:33N 37°55' E 023°05'0 0.0
2016-May-17 11:33N 37°55' E 023°05'0 0.0
2016-May-17 10:33N 37°55' E 023°05'0 0.0
2016-May-17 09:33N 37°55' E 023°05'0 0.0
2016-May-17 08:33N 37°55' E 023°05'0 0.0
2016-May-17 07:33N 37°55' E 023°05'1 1.1
2016-May-17 06:33N 37°55' E 023°07'10 9.7
2016-May-17 05:33N 37°52' E 023°19'1010.2
2016-May-17 04:33N 37°50' E 023°31'8 8.5
2016-May-17 03:33N 37°47' E 023°41'9 9.2
2016-May-17 02:33N 37°40' E 023°48'9 9.4
2016-May-17 01:33N 37°36' E 023°59'10 9.4
2016-May-17 00:28N 37°31' E 024°10'28 9.8
2016-May-16 21:34N 37°24' E 024°45'1010.1
2016-May-16 20:33N 37°20' E 024°57'1010.0
2016-May-16 19:33N 37°19' E 025°09'1010.4
2016-May-16 18:33N 37°17' E 025°22'1410.2
2016-May-16 17:11N 37°13' E 025°39'610.4
2016-May-16 16:33N 37°11' E 025°47'  
2016-May-09 12:06N 36°54' E 026°55'1010.2
2016-May-09 11:09N 36°57' E 026°43'610.1
2016-May-09 10:31N 36°59' E 026°36'10 9.6
2016-May-09 09:31N 37°03' E 026°25'1010.0
2016-May-09 08:31N 37°05' E 026°13'1010.2
2016-May-09 07:33N 37°08' E 026°01'1010.1
2016-May-09 06:31N 37°10' E 025°48'1010.1
2016-May-09 05:32N 37°13' E 025°36'1010.1
2016-May-09 04:33N 37°15' E 025°24'10 9.7
2016-May-09 03:34N 37°17' E 025°12'10 9.7
2016-May-09 02:33N 37°19' E 025°00'10 9.9
2016-May-09 01:33N 37°22' E 024°48'30 9.9
2016-May-08 22:32N 37°31' E 024°12'10 9.7
2016-May-08 21:33N 37°34' E 024°01'1010.2
2016-May-08 20:33N 37°38' E 023°49'10 9.6
2016-May-08 19:33N 37°44' E 023°40'9 9.2
2016-May-08 18:33N 37°49' E 023°31'10 9.9
2016-May-08 17:33N 37°52' E 023°18'10 9.8
2016-May-08 16:33N 37°54' E 023°06'1 1.1
2016-May-08 15:33N 37°55' E 023°05'0 0.0
2016-May-08 14:33N 37°55' E 023°05'0 0.0
2016-May-08 13:33N 37°55' E 023°05'0 0.0
2016-May-08 12:33N 37°55' E 023°05'0 0.0
2016-May-08 11:33N 37°55' E 023°05'0 0.0
2016-May-08 10:33N 37°55' E 023°05'5 5.5
2016-May-08 09:33N 37°54' E 023°12'1111.1
2016-May-08 08:33N 37°51' E 023°26'1110.8
2016-May-08 07:33N 37°50' E 023°39'1111.0
2016-May-08 06:33N 37°40' E 023°47'  
Track history (hours):
 
Tides and Currents Weather Stations Pressure Air Temp Water Temp Dewpoint Dewpoint Depression Visibility Wind Speed Wind Dir Waves Ship Positions

Antonios

Last reported at 2016-May-18 06:33 UTC. Time now 2016-May-27 12:18 UTC.
Position N 37°11' E 025°46'.
Warning: this ship's position is 9 days out of date.

Length 57 m; draft 4 m.

Type: Tanker. MMSI: 239191300.

Date/timePositionNaut miles runAvg speedWind from/ knotsBaromVisibWave heightAir tempDewpointWater temp
2016-May-18 06:33N 37°11' E 025°46'11 9.8
2016-May-18 05:25N 37°14' E 025°32'8 9.7
2016-May-18 04:33N 37°15' E 025°22'10 9.8
2016-May-18 03:33N 37°18' E 025°10'10 9.7
2016-May-18 02:33N 37°20' E 024°58'10 9.9
2016-May-18 01:33N 37°23' E 024°46'2410.0
2016-May-17 23:11N 37°30' E 024°18'7 9.8
2016-May-17 22:29N 37°31' E 024°09'1010.0
2016-May-17 21:32N 37°34' E 023°58'1010.2
2016-May-17 20:33N 37°37' E 023°46'10 9.6
2016-May-17 19:33N 37°45' E 023°39'9 8.8
2016-May-17 18:33N 37°50' E 023°30'10 9.8
2016-May-17 17:33N 37°52' E 023°18'10 9.9
2016-May-17 16:33N 37°55' E 023°06'0 0.3
2016-May-17 15:33N 37°55' E 023°05'0 0.0
2016-May-17 14:33N 37°55' E 023°05'0 0.0
2016-May-17 13:33N 37°55' E 023°05'0 0.0
2016-May-17 12:33N 37°55' E 023°05'0 0.0
2016-May-17 11:33N 37°55' E 023°05'0 0.0
2016-May-17 10:33N 37°55' E 023°05'0 0.0
2016-May-17 09:33N 37°55' E 023°05'0 0.0
2016-May-17 08:33N 37°55' E 023°05'0 0.0
2016-May-17 07:33N 37°55' E 023°05'1 1.1
2016-May-17 06:33N 37°55' E 023°07'10 9.7
2016-May-17 05:33N 37°52' E 023°19'1010.2
2016-May-17 04:33N 37°50' E 023°31'8 8.5
2016-May-17 03:33N 37°47' E 023°41'9 9.2
2016-May-17 02:33N 37°40' E 023°48'9 9.4
2016-May-17 01:33N 37°36' E 023°59'10 9.4
2016-May-17 00:28N 37°31' E 024°10'28 9.8
2016-May-16 21:34N 37°24' E 024°45'1010.1
2016-May-16 20:33N 37°20' E 024°57'1010.0
2016-May-16 19:33N 37°19' E 025°09'1010.4
2016-May-16 18:33N 37°17' E 025°22'1410.2
2016-May-16 17:11N 37°13' E 025°39'610.4
2016-May-16 16:33N 37°11' E 025°47'  
2016-May-09 12:06N 36°54' E 026°55'1010.2
2016-May-09 11:09N 36°57' E 026°43'610.1
2016-May-09 10:31N 36°59' E 026°36'10 9.6
2016-May-09 09:31N 37°03' E 026°25'1010.0
2016-May-09 08:31N 37°05' E 026°13'1010.2
2016-May-09 07:33N 37°08' E 026°01'1010.1
2016-May-09 06:31N 37°10' E 025°48'1010.1
2016-May-09 05:32N 37°13' E 025°36'1010.1
2016-May-09 04:33N 37°15' E 025°24'10 9.7
2016-May-09 03:34N 37°17' E 025°12'10 9.7
2016-May-09 02:33N 37°19' E 025°00'10 9.9
2016-May-09 01:33N 37°22' E 024°48'30 9.9
2016-May-08 22:32N 37°31' E 024°12'10 9.7
2016-May-08 21:33N 37°34' E 024°01'1010.2
2016-May-08 20:33N 37°38' E 023°49'10 9.6
2016-May-08 19:33N 37°44' E 023°40'9 9.2
2016-May-08 18:33N 37°49' E 023°31'10 9.9
2016-May-08 17:33N 37°52' E 023°18'10 9.8
2016-May-08 16:33N 37°54' E 023°06'1 1.1
2016-May-08 15:33N 37°55' E 023°05'0 0.0
2016-May-08 14:33N 37°55' E 023°05'0 0.0
2016-May-08 13:33N 37°55' E 023°05'0 0.0
2016-May-08 12:33N 37°55' E 023°05'0 0.0
2016-May-08 11:33N 37°55' E 023°05'0 0.0
2016-May-08 10:33N 37°55' E 023°05'5 5.5
2016-May-08 09:33N 37°54' E 023°12'1111.1
2016-May-08 08:33N 37°51' E 023°26'1110.8
2016-May-08 07:33N 37°50' E 023°39'1111.0
2016-May-08 06:33N 37°40' E 023°47'  

Dump ship's entire track history